sensor_id;sensor_type;location;lat;lon;timestamp;temperature;humidity
46492;DHT22;32206;51.446;6.792;2023-06-26T00:01:59;25.00;99.90
46492;DHT22;32206;51.446;6.792;2023-06-26T00:04:25;25.00;99.90
46492;DHT22;32206;51.446;6.792;2023-06-26T00:06:50;25.00;99.90
46492;DHT22;32206;51.446;6.792;2023-06-26T00:13:16;24.90;99.90
46492;DHT22;32206;51.446;6.792;2023-06-26T00:15:41;24.80;99.90
46492;DHT22;32206;51.446;6.792;2023-06-26T00:18:07;24.80;99.90
46492;DHT22;32206;51.446;6.792;2023-06-26T00:20:33;24.70;99.90
46492;DHT22;32206;51.446;6.792;2023-06-26T00:23:00;24.70;99.90
46492;DHT22;32206;51.446;6.792;2023-06-26T00:25:25;24.70;99.90
46492;DHT22;32206;51.446;6.792;2023-06-26T00:27:51;24.70;99.90
46492;DHT22;32206;51.446;6.792;2023-06-26T00:30:17;24.70;99.90
46492;DHT22;32206;51.446;6.792;2023-06-26T00:32:43;24.60;99.90
46492;DHT22;32206;51.446;6.792;2023-06-26T00:35:08;24.60;99.90
46492;DHT22;32206;51.446;6.792;2023-06-26T00:37:34;24.50;99.90
46492;DHT22;32206;51.446;6.792;2023-06-26T00:40:00;24.50;99.90
46492;DHT22;32206;51.446;6.792;2023-06-26T00:42:25;24.40;99.90
46492;DHT22;32206;51.446;6.792;2023-06-26T00:44:51;24.30;1.00
46492;DHT22;32206;51.446;6.792;2023-06-26T00:47:17;24.30;1.00
46492;DHT22;32206;51.446;6.792;2023-06-26T00:49:44;24.30;1.00
46492;DHT22;32206;51.446;6.792;2023-06-26T00:52:09;24.30;1.00
46492;DHT22;32206;51.446;6.792;2023-06-26T00:54:35;24.20;1.00
46492;DHT22;32206;51.446;6.792;2023-06-26T00:57:01;24.10;1.00
46492;DHT22;32206;51.446;6.792;2023-06-26T00:59:26;24.20;1.00
46492;DHT22;32206;51.446;6.792;2023-06-26T01:01:52;24.10;1.90
46492;DHT22;32206;51.446;6.792;2023-06-26T01:04:18;24.10;48.50
46492;DHT22;32206;51.446;6.792;2023-06-26T01:06:47;24.10;2.30
46492;DHT22;32206;51.446;6.792;2023-06-26T01:09:21;24.10;2.80
46492;DHT22;32206;51.446;6.792;2023-06-26T01:11:48;24.00;67.10
46492;DHT22;32206;51.446;6.792;2023-06-26T01:14:13;24.00;53.50
46492;DHT22;32206;51.446;6.792;2023-06-26T01:16:40;23.90;95.10
46492;DHT22;32206;51.446;6.792;2023-06-26T01:25:29;23.80;99.90
46492;DHT22;32206;51.446;6.792;2023-06-26T01:27:58;23.80;99.90
46492;DHT22;32206;51.446;6.792;2023-06-26T01:30:25;23.70;99.90
46492;DHT22;32206;51.446;6.792;2023-06-26T01:32:51;23.70;99.90
46492;DHT22;32206;51.446;6.792;2023-06-26T01:35:17;23.70;99.90
46492;DHT22;32206;51.446;6.792;2023-06-26T01:37:43;23.70;99.90
46492;DHT22;32206;51.446;6.792;2023-06-26T01:40:09;23.70;99.90
46492;DHT22;32206;51.446;6.792;2023-06-26T01:42:35;23.70;99.90
46492;DHT22;32206;51.446;6.792;2023-06-26T01:45:12;23.60;99.90
46492;DHT22;32206;51.446;6.792;2023-06-26T01:47:42;23.50;99.90
46492;DHT22;32206;51.446;6.792;2023-06-26T01:50:17;23.60;99.90
46492;DHT22;32206;51.446;6.792;2023-06-26T01:52:58;23.40;99.90
46492;DHT22;32206;51.446;6.792;2023-06-26T01:58:13;23.40;99.90
46492;DHT22;32206;51.446;6.792;2023-06-26T02:00:39;23.30;99.90
46492;DHT22;32206;51.446;6.792;2023-06-26T02:03:05;23.30;99.90
46492;DHT22;32206;51.446;6.792;2023-06-26T02:05:32;23.20;1.00
46492;DHT22;32206;51.446;6.792;2023-06-26T02:07:58;23.20;1.00
46492;DHT22;32206;51.446;6.792;2023-06-26T02:10:24;23.20;1.00
46492;DHT22;32206;51.446;6.792;2023-06-26T02:12:49;23.20;1.00
46492;DHT22;32206;51.446;6.792;2023-06-26T02:15:15;23.20;1.00
46492;DHT22;32206;51.446;6.792;2023-06-26T02:17:40;23.20;99.80
46492;DHT22;32206;51.446;6.792;2023-06-26T02:20:07;23.10;99.90
46492;DHT22;32206;51.446;6.792;2023-06-26T02:22:34;23.10;99.90
46492;DHT22;32206;51.446;6.792;2023-06-26T02:25:00;23.00;1.00
46492;DHT22;32206;51.446;6.792;2023-06-26T02:27:26;23.00;99.90
46492;DHT22;32206;51.446;6.792;2023-06-26T02:29:51;23.00;99.90
46492;DHT22;32206;51.446;6.792;2023-06-26T02:35:39;22.90;99.90
46492;DHT22;32206;51.446;6.792;2023-06-26T02:38:05;22.90;1.00
46492;DHT22;32206;51.446;6.792;2023-06-26T02:40:32;22.90;99.90
46492;DHT22;32206;51.446;6.792;2023-06-26T02:42:58;22.90;99.90
46492;DHT22;32206;51.446;6.792;2023-06-26T02:45:24;22.90;91.90
46492;DHT22;32206;51.446;6.792;2023-06-26T02:51:15;22.80;99.90
46492;DHT22;32206;51.446;6.792;2023-06-26T02:53:40;22.90;99.90
46492;DHT22;32206;51.446;6.792;2023-06-26T02:56:06;22.80;99.90
46492;DHT22;32206;51.446;6.792;2023-06-26T02:58:31;22.80;99.90
46492;DHT22;32206;51.446;6.792;2023-06-26T03:00:57;22.80;1.00
46492;DHT22;32206;51.446;6.792;2023-06-26T03:10:08;22.80;99.90
46492;DHT22;32206;51.446;6.792;2023-06-26T03:12:33;22.80;99.90
46492;DHT22;32206;51.446;6.792;2023-06-26T03:14:59;22.80;99.90
46492;DHT22;32206;51.446;6.792;2023-06-26T03:17:24;22.80;99.90
46492;DHT22;32206;51.446;6.792;2023-06-26T03:19:50;22.90;37.00
46492;DHT22;32206;51.446;6.792;2023-06-26T03:22:16;22.90;99.90
46492;DHT22;32206;51.446;6.792;2023-06-26T03:24:41;22.90;1.00
46492;DHT22;32206;51.446;6.792;2023-06-26T03:27:09;23.00;1.00
46492;DHT22;32206;51.446;6.792;2023-06-26T03:29:35;22.90;99.90
46492;DHT22;32206;51.446;6.792;2023-06-26T03:32:00;22.90;99.90
46492;DHT22;32206;51.446;6.792;2023-06-26T03:34:26;22.90;56.70
46492;DHT22;32206;51.446;6.792;2023-06-26T03:36:52;22.90;99.90
46492;DHT22;32206;51.446;6.792;2023-06-26T03:39:17;23.00;99.90
46492;DHT22;32206;51.446;6.792;2023-06-26T03:41:43;23.00;99.90
46492;DHT22;32206;51.446;6.792;2023-06-26T03:44:08;23.00;99.90
46492;DHT22;32206;51.446;6.792;2023-06-26T03:46:34;22.90;1.00
46492;DHT22;32206;51.446;6.792;2023-06-26T03:49:00;22.90;99.90
46492;DHT22;32206;51.446;6.792;2023-06-26T03:51:25;22.80;99.90
46492;DHT22;32206;51.446;6.792;2023-06-26T03:53:51;22.80;99.90
46492;DHT22;32206;51.446;6.792;2023-06-26T03:56:16;22.70;1.00
46492;DHT22;32206;51.446;6.792;2023-06-26T03:58:42;22.70;99.90
46492;DHT22;32206;51.446;6.792;2023-06-26T04:01:08;22.70;1.00
46492;DHT22;32206;51.446;6.792;2023-06-26T04:03:33;22.70;99.90
46492;DHT22;32206;51.446;6.792;2023-06-26T04:05:59;22.70;99.90
46492;DHT22;32206;51.446;6.792;2023-06-26T04:08:25;22.60;99.90
46492;DHT22;32206;51.446;6.792;2023-06-26T04:10:52;22.60;99.90
46492;DHT22;32206;51.446;6.792;2023-06-26T04:13:18;22.50;99.80
46492;DHT22;32206;51.446;6.792;2023-06-26T04:15:43;22.40;1.00
46492;DHT22;32206;51.446;6.792;2023-06-26T04:18:09;22.50;79.10
46492;DHT22;32206;51.446;6.792;2023-06-26T04:20:39;22.60;99.90
46492;DHT22;32206;51.446;6.792;2023-06-26T04:23:06;22.60;1.00
46492;DHT22;32206;51.446;6.792;2023-06-26T04:28:54;22.50;1.00
46492;DHT22;32206;51.446;6.792;2023-06-26T04:31:20;22.60;1.00
46492;DHT22;32206;51.446;6.792;2023-06-26T04:33:45;22.50;1.00
46492;DHT22;32206;51.446;6.792;2023-06-26T04:36:17;22.50;33.40
46492;DHT22;32206;51.446;6.792;2023-06-26T04:38:43;22.60;99.90
46492;DHT22;32206;51.446;6.792;2023-06-26T04:41:09;22.50;67.40
46492;DHT22;32206;51.446;6.792;2023-06-26T04:50:19;22.50;99.90
46492;DHT22;32206;51.446;6.792;2023-06-26T04:52:45;22.40;1.00
46492;DHT22;32206;51.446;6.792;2023-06-26T04:58:33;22.40;99.90
46492;DHT22;32206;51.446;6.792;2023-06-26T05:00:59;22.40;15.20
46492;DHT22;32206;51.446;6.792;2023-06-26T05:10:09;22.30;99.90
46492;DHT22;32206;51.446;6.792;2023-06-26T05:12:35;22.30;83.90
46492;DHT22;32206;51.446;6.792;2023-06-26T05:15:00;22.30;99.90
46492;DHT22;32206;51.446;6.792;2023-06-26T05:17:26;22.30;99.90
46492;DHT22;32206;51.446;6.792;2023-06-26T05:19:52;22.30;99.90
46492;DHT22;32206;51.446;6.792;2023-06-26T05:22:17;22.30;1.00
46492;DHT22;32206;51.446;6.792;2023-06-26T05:24:46;22.40;39.70
46492;DHT22;32206;51.446;6.792;2023-06-26T05:27:12;22.40;40.80
46492;DHT22;32206;51.446;6.792;2023-06-26T05:29:46;22.30;99.90
46492;DHT22;32206;51.446;6.792;2023-06-26T05:32:15;22.30;1.00
46492;DHT22;32206;51.446;6.792;2023-06-26T05:34:47;22.30;34.60
46492;DHT22;32206;51.446;6.792;2023-06-26T05:37:21;22.30;99.90
46492;DHT22;32206;51.446;6.792;2023-06-26T05:39:47;22.40;99.90
46492;DHT22;32206;51.446;6.792;2023-06-26T05:42:13;22.40;99.90
46492;DHT22;32206;51.446;6.792;2023-06-26T05:44:39;22.40;2.20
46492;DHT22;32206;51.446;6.792;2023-06-26T05:47:05;22.40;52.30
46492;DHT22;32206;51.446;6.792;2023-06-26T05:49:31;22.40;99.90
46492;DHT22;32206;51.446;6.792;2023-06-26T05:51:57;22.40;99.90
46492;DHT22;32206;51.446;6.792;2023-06-26T05:54:24;22.30;1.00
46492;DHT22;32206;51.446;6.792;2023-06-26T06:00:12;22.10;1.00
46492;DHT22;32206;51.446;6.792;2023-06-26T06:02:39;22.10;99.90
46492;DHT22;32206;51.446;6.792;2023-06-26T06:05:05;22.00;99.90
46492;DHT22;32206;51.446;6.792;2023-06-26T06:07:32;21.90;99.90
46492;DHT22;32206;51.446;6.792;2023-06-26T06:13:29;22.20;99.90
46492;DHT22;32206;51.446;6.792;2023-06-26T06:15:55;22.30;99.90
46492;DHT22;32206;51.446;6.792;2023-06-26T06:18:21;22.20;99.90
46492;DHT22;32206;51.446;6.792;2023-06-26T06:20:47;22.00;99.90
46492;DHT22;32206;51.446;6.792;2023-06-26T06:23:13;21.90;99.90
46492;DHT22;32206;51.446;6.792;2023-06-26T06:25:38;21.80;1.00
46492;DHT22;32206;51.446;6.792;2023-06-26T06:28:05;21.90;1.00
46492;DHT22;32206;51.446;6.792;2023-06-26T06:30:31;22.10;1.00
46492;DHT22;32206;51.446;6.792;2023-06-26T06:32:57;22.20;1.00
46492;DHT22;32206;51.446;6.792;2023-06-26T06:35:23;22.30;99.90
46492;DHT22;32206;51.446;6.792;2023-06-26T06:37:49;22.20;99.90
46492;DHT22;32206;51.446;6.792;2023-06-26T06:40:15;22.20;99.90
46492;DHT22;32206;51.446;6.792;2023-06-26T06:42:41;22.20;99.90
46492;DHT22;32206;51.446;6.792;2023-06-26T06:45:07;22.20;1.00
46492;DHT22;32206;51.446;6.792;2023-06-26T06:47:33;22.20;99.90
46492;DHT22;32206;51.446;6.792;2023-06-26T06:50:00;22.30;1.00
46492;DHT22;32206;51.446;6.792;2023-06-26T06:52:34;22.40;1.00
46492;DHT22;32206;51.446;6.792;2023-06-26T06:55:00;22.40;1.00
46492;DHT22;32206;51.446;6.792;2023-06-26T06:57:30;22.40;1.00
46492;DHT22;32206;51.446;6.792;2023-06-26T06:59:56;22.40;99.90
46492;DHT22;32206;51.446;6.792;2023-06-26T07:02:21;22.40;99.90
46492;DHT22;32206;51.446;6.792;2023-06-26T07:04:47;22.30;1.00
46492;DHT22;32206;51.446;6.792;2023-06-26T07:07:13;22.40;1.00
46492;DHT22;32206;51.446;6.792;2023-06-26T07:09:39;22.40;1.00
46492;DHT22;32206;51.446;6.792;2023-06-26T07:12:05;22.20;1.00
46492;DHT22;32206;51.446;6.792;2023-06-26T07:14:31;22.30;1.00
46492;DHT22;32206;51.446;6.792;2023-06-26T07:20:47;22.40;1.00
46492;DHT22;32206;51.446;6.792;2023-06-26T07:23:12;22.40;1.00
46492;DHT22;32206;51.446;6.792;2023-06-26T07:25:38;22.50;99.90
46492;DHT22;32206;51.446;6.792;2023-06-26T07:31:39;22.50;1.00
46492;DHT22;32206;51.446;6.792;2023-06-26T07:34:05;22.60;99.90
46492;DHT22;32206;51.446;6.792;2023-06-26T07:36:31;22.50;99.90
46492;DHT22;32206;51.446;6.792;2023-06-26T07:38:56;22.60;99.90
46492;DHT22;32206;51.446;6.792;2023-06-26T07:41:22;22.60;1.00
46492;DHT22;32206;51.446;6.792;2023-06-26T07:43:47;22.60;1.00
46492;DHT22;32206;51.446;6.792;2023-06-26T07:46:13;22.60;1.00
46492;DHT22;32206;51.446;6.792;2023-06-26T07:48:38;22.50;99.90
46492;DHT22;32206;51.446;6.792;2023-06-26T07:51:04;22.40;1.00
46492;DHT22;32206;51.446;6.792;2023-06-26T07:53:30;22.50;1.00
46492;DHT22;32206;51.446;6.792;2023-06-26T07:55:55;22.50;1.00
46492;DHT22;32206;51.446;6.792;2023-06-26T07:58:21;22.60;1.00
46492;DHT22;32206;51.446;6.792;2023-06-26T08:00:46;22.70;1.00
46492;DHT22;32206;51.446;6.792;2023-06-26T08:03:12;22.80;99.90
46492;DHT22;32206;51.446;6.792;2023-06-26T08:05:38;22.90;99.90
46492;DHT22;32206;51.446;6.792;2023-06-26T08:08:03;22.90;99.90
46492;DHT22;32206;51.446;6.792;2023-06-26T08:10:29;22.70;99.90
46492;DHT22;32206;51.446;6.792;2023-06-26T08:12:55;22.80;99.90
46492;DHT22;32206;51.446;6.792;2023-06-26T08:15:21;22.90;99.90
46492;DHT22;32206;51.446;6.792;2023-06-26T08:17:47;22.90;99.90
46492;DHT22;32206;51.446;6.792;2023-06-26T08:20:13;22.90;99.90
46492;DHT22;32206;51.446;6.792;2023-06-26T08:22:39;22.90;99.90
46492;DHT22;32206;51.446;6.792;2023-06-26T08:25:05;22.80;99.90
46492;DHT22;32206;51.446;6.792;2023-06-26T08:27:32;22.80;99.90
46492;DHT22;32206;51.446;6.792;2023-06-26T08:29:57;22.80;1.00
46492;DHT22;32206;51.446;6.792;2023-06-26T08:32:24;22.80;1.00
46492;DHT22;32206;51.446;6.792;2023-06-26T08:34:50;22.90;1.00
46492;DHT22;32206;51.446;6.792;2023-06-26T08:37:16;22.90;99.90
46492;DHT22;32206;51.446;6.792;2023-06-26T08:39:41;23.10;99.90
46492;DHT22;32206;51.446;6.792;2023-06-26T08:42:07;23.20;1.00
46492;DHT22;32206;51.446;6.792;2023-06-26T08:44:33;23.20;1.00
46492;DHT22;32206;51.446;6.792;2023-06-26T08:47:01;23.20;99.90
46492;DHT22;32206;51.446;6.792;2023-06-26T08:49:43;23.40;99.90
46492;DHT22;32206;51.446;6.792;2023-06-26T08:52:23;23.30;99.90
46492;DHT22;32206;51.446;6.792;2023-06-26T08:54:55;23.10;1.00
46492;DHT22;32206;51.446;6.792;2023-06-26T08:57:23;23.10;99.90
46492;DHT22;32206;51.446;6.792;2023-06-26T08:59:49;23.10;99.90
46492;DHT22;32206;51.446;6.792;2023-06-26T09:02:15;23.20;1.00
46492;DHT22;32206;51.446;6.792;2023-06-26T09:04:41;23.30;1.00
46492;DHT22;32206;51.446;6.792;2023-06-26T09:07:07;23.40;99.90
46492;DHT22;32206;51.446;6.792;2023-06-26T09:09:33;23.20;99.90
46492;DHT22;32206;51.446;6.792;2023-06-26T09:11:59;23.20;1.00
46492;DHT22;32206;51.446;6.792;2023-06-26T09:14:27;23.20;99.90
46492;DHT22;32206;51.446;6.792;2023-06-26T09:16:53;23.30;99.90
46492;DHT22;32206;51.446;6.792;2023-06-26T09:19:18;23.50;99.90
46492;DHT22;32206;51.446;6.792;2023-06-26T09:21:44;23.60;1.00
46492;DHT22;32206;51.446;6.792;2023-06-26T09:24:10;23.80;99.90
46492;DHT22;32206;51.446;6.792;2023-06-26T09:26:37;23.90;99.90
46492;DHT22;32206;51.446;6.792;2023-06-26T09:29:04;24.00;99.90
46492;DHT22;32206;51.446;6.792;2023-06-26T09:31:30;24.00;99.90
46492;DHT22;32206;51.446;6.792;2023-06-26T09:33:58;24.00;99.90
46492;DHT22;32206;51.446;6.792;2023-06-26T09:36:27;24.10;99.90
46492;DHT22;32206;51.446;6.792;2023-06-26T09:38:54;24.00;99.90
46492;DHT22;32206;51.446;6.792;2023-06-26T09:41:20;24.00;99.90
46492;DHT22;32206;51.446;6.792;2023-06-26T09:43:50;24.20;99.90
46492;DHT22;32206;51.446;6.792;2023-06-26T09:46:37;24.30;99.90
46492;DHT22;32206;51.446;6.792;2023-06-26T09:49:10;24.10;99.90
46492;DHT22;32206;51.446;6.792;2023-06-26T09:51:38;23.90;97.70
46492;DHT22;32206;51.446;6.792;2023-06-26T09:57:51;24.20;1.00
46492;DHT22;32206;51.446;6.792;2023-06-26T10:00:17;24.40;99.90
46492;DHT22;32206;51.446;6.792;2023-06-26T10:02:45;24.50;99.90
46492;DHT22;32206;51.446;6.792;2023-06-26T10:05:10;24.50;99.90
46492;DHT22;32206;51.446;6.792;2023-06-26T10:07:37;24.60;99.90
46492;DHT22;32206;51.446;6.792;2023-06-26T10:10:04;24.70;99.90
46492;DHT22;32206;51.446;6.792;2023-06-26T10:12:31;24.60;99.90
46492;DHT22;32206;51.446;6.792;2023-06-26T10:14:58;24.50;99.90
46492;DHT22;32206;51.446;6.792;2023-06-26T10:17:28;24.50;99.90
46492;DHT22;32206;51.446;6.792;2023-06-26T10:19:58;24.50;99.90
46492;DHT22;32206;51.446;6.792;2023-06-26T10:22:28;24.60;99.90
46492;DHT22;32206;51.446;6.792;2023-06-26T10:28:17;24.80;99.90
46492;DHT22;32206;51.446;6.792;2023-06-26T10:30:46;25.10;99.90
46492;DHT22;32206;51.446;6.792;2023-06-26T10:33:12;25.30;99.90
46492;DHT22;32206;51.446;6.792;2023-06-26T10:35:45;25.20;99.90
46492;DHT22;32206;51.446;6.792;2023-06-26T10:38:11;25.20;99.90
46492;DHT22;32206;51.446;6.792;2023-06-26T10:40:45;25.30;99.90
46492;DHT22;32206;51.446;6.792;2023-06-26T10:43:12;25.10;99.90
46492;DHT22;32206;51.446;6.792;2023-06-26T10:45:49;25.00;99.90
46492;DHT22;32206;51.446;6.792;2023-06-26T10:48:18;25.00;99.90
46492;DHT22;32206;51.446;6.792;2023-06-26T10:50:43;25.00;99.90
46492;DHT22;32206;51.446;6.792;2023-06-26T10:56:00;25.20;99.90
46492;DHT22;32206;51.446;6.792;2023-06-26T10:58:41;25.00;99.90
46492;DHT22;32206;51.446;6.792;2023-06-26T11:01:25;24.80;99.40
46492;DHT22;32206;51.446;6.792;2023-06-26T11:04:06;24.80;90.30
46492;DHT22;32206;51.446;6.792;2023-06-26T11:06:33;24.60;35.20
46492;DHT22;32206;51.446;6.792;2023-06-26T11:09:00;24.30;26.70
46492;DHT22;32206;51.446;6.792;2023-06-26T11:14:24;24.40;42.20
46492;DHT22;32206;51.446;6.792;2023-06-26T11:16:50;24.60;66.00
46492;DHT22;32206;51.446;6.792;2023-06-26T11:19:17;24.90;33.60
46492;DHT22;32206;51.446;6.792;2023-06-26T11:21:45;25.20;11.60
46492;DHT22;32206;51.446;6.792;2023-06-26T11:24:15;25.20;6.40
46492;DHT22;32206;51.446;6.792;2023-06-26T11:26:43;25.00;1.70
46492;DHT22;32206;51.446;6.792;2023-06-26T11:29:10;24.80;1.20
46492;DHT22;32206;51.446;6.792;2023-06-26T11:31:37;24.70;3.10
46492;DHT22;32206;51.446;6.792;2023-06-26T11:34:07;24.60;1.00
46492;DHT22;32206;51.446;6.792;2023-06-26T11:36:34;24.50;1.00
46492;DHT22;32206;51.446;6.792;2023-06-26T11:39:04;24.50;1.00
46492;DHT22;32206;51.446;6.792;2023-06-26T11:41:34;24.70;1.00
46492;DHT22;32206;51.446;6.792;2023-06-26T11:44:04;25.00;1.00
46492;DHT22;32206;51.446;6.792;2023-06-26T11:46:30;25.00;1.00
46492;DHT22;32206;51.446;6.792;2023-06-26T11:48:57;25.00;1.00
46492;DHT22;32206;51.446;6.792;2023-06-26T11:51:22;25.10;1.00
46492;DHT22;32206;51.446;6.792;2023-06-26T11:53:48;25.10;1.00
46492;DHT22;32206;51.446;6.792;2023-06-26T11:56:30;25.30;1.00
46492;DHT22;32206;51.446;6.792;2023-06-26T11:59:05;25.30;1.00
46492;DHT22;32206;51.446;6.792;2023-06-26T12:04:04;25.20;1.00
46492;DHT22;32206;51.446;6.792;2023-06-26T12:06:41;25.10;1.00
46492;DHT22;32206;51.446;6.792;2023-06-26T12:09:09;25.00;1.00
46492;DHT22;32206;51.446;6.792;2023-06-26T12:11:41;25.20;1.00
46492;DHT22;32206;51.446;6.792;2023-06-26T12:14:07;25.30;1.00
46492;DHT22;32206;51.446;6.792;2023-06-26T12:16:34;25.50;1.00
46492;DHT22;32206;51.446;6.792;2023-06-26T12:19:05;25.70;1.00
46492;DHT22;32206;51.446;6.792;2023-06-26T12:24:02;26.10;1.00
46492;DHT22;32206;51.446;6.792;2023-06-26T12:26:29;26.10;1.00
46492;DHT22;32206;51.446;6.792;2023-06-26T12:29:05;25.90;1.00
46492;DHT22;32206;51.446;6.792;2023-06-26T12:31:32;25.70;1.00
46492;DHT22;32206;51.446;6.792;2023-06-26T12:33:58;25.60;1.00
46492;DHT22;32206;51.446;6.792;2023-06-26T12:36:24;25.30;1.00
46492;DHT22;32206;51.446;6.792;2023-06-26T12:38:50;25.20;1.00
46492;DHT22;32206;51.446;6.792;2023-06-26T12:41:16;25.20;1.00
46492;DHT22;32206;51.446;6.792;2023-06-26T12:43:42;25.60;1.00
46492;DHT22;32206;51.446;6.792;2023-06-26T12:46:09;25.80;1.00
46492;DHT22;32206;51.446;6.792;2023-06-26T12:48:44;25.80;1.00
46492;DHT22;32206;51.446;6.792;2023-06-26T12:51:14;25.80;1.00
46492;DHT22;32206;51.446;6.792;2023-06-26T12:53:40;25.70;1.00
46492;DHT22;32206;51.446;6.792;2023-06-26T12:56:07;25.80;1.00
46492;DHT22;32206;51.446;6.792;2023-06-26T12:58:33;25.90;1.00
46492;DHT22;32206;51.446;6.792;2023-06-26T13:00:59;25.80;1.00
46492;DHT22;32206;51.446;6.792;2023-06-26T13:07:24;26.10;1.00
46492;DHT22;32206;51.446;6.792;2023-06-26T13:09:50;25.90;1.00
46492;DHT22;32206;51.446;6.792;2023-06-26T13:12:16;25.80;1.00
46492;DHT22;32206;51.446;6.792;2023-06-26T13:18:07;25.80;1.00
46492;DHT22;32206;51.446;6.792;2023-06-26T13:20:32;25.80;1.00
46492;DHT22;32206;51.446;6.792;2023-06-26T13:22:58;25.70;1.00
46492;DHT22;32206;51.446;6.792;2023-06-26T13:25:24;25.60;1.00
46492;DHT22;32206;51.446;6.792;2023-06-26T13:27:49;25.60;1.00
46492;DHT22;32206;51.446;6.792;2023-06-26T13:30:15;25.60;1.00
46492;DHT22;32206;51.446;6.792;2023-06-26T13:32:42;25.40;1.00
46492;DHT22;32206;51.446;6.792;2023-06-26T13:35:09;25.20;1.00
46492;DHT22;32206;51.446;6.792;2023-06-26T13:41:06;25.30;1.00
46492;DHT22;32206;51.446;6.792;2023-06-26T13:43:32;25.30;1.00
46492;DHT22;32206;51.446;6.792;2023-06-26T13:45:57;25.40;1.00
46492;DHT22;32206;51.446;6.792;2023-06-26T13:48:23;25.50;1.00
46492;DHT22;32206;51.446;6.792;2023-06-26T13:50:52;25.60;1.00
46492;DHT22;32206;51.446;6.792;2023-06-26T13:53:18;25.80;1.00
46492;DHT22;32206;51.446;6.792;2023-06-26T13:55:43;25.90;1.00
46492;DHT22;32206;51.446;6.792;2023-06-26T13:58:09;25.90;1.00
46492;DHT22;32206;51.446;6.792;2023-06-26T14:00:36;25.90;1.00
46492;DHT22;32206;51.446;6.792;2023-06-26T14:03:04;26.00;1.00
46492;DHT22;32206;51.446;6.792;2023-06-26T14:08:51;25.80;1.00
46492;DHT22;32206;51.446;6.792;2023-06-26T14:11:17;25.60;1.00
46492;DHT22;32206;51.446;6.792;2023-06-26T14:13:43;25.70;1.00
46492;DHT22;32206;51.446;6.792;2023-06-26T14:16:08;25.80;1.00
46492;DHT22;32206;51.446;6.792;2023-06-26T14:18:34;25.80;1.00
46492;DHT22;32206;51.446;6.792;2023-06-26T14:21:01;25.80;1.00
46492;DHT22;32206;51.446;6.792;2023-06-26T14:23:27;25.90;1.00
46492;DHT22;32206;51.446;6.792;2023-06-26T14:25:53;26.10;1.00
46492;DHT22;32206;51.446;6.792;2023-06-26T14:28:18;26.20;1.00
46492;DHT22;32206;51.446;6.792;2023-06-26T14:30:44;26.20;99.90
46492;DHT22;32206;51.446;6.792;2023-06-26T14:33:10;26.00;99.90
46492;DHT22;32206;51.446;6.792;2023-06-26T14:35:35;25.70;99.90
46492;DHT22;32206;51.446;6.792;2023-06-26T14:44:45;25.60;99.90
46492;DHT22;32206;51.446;6.792;2023-06-26T14:47:13;25.40;99.90
46492;DHT22;32206;51.446;6.792;2023-06-26T14:49:40;25.30;99.90
46492;DHT22;32206;51.446;6.792;2023-06-26T14:52:05;25.20;99.90
46492;DHT22;32206;51.446;6.792;2023-06-26T14:54:31;25.20;99.90
46492;DHT22;32206;51.446;6.792;2023-06-26T14:56:58;25.10;99.90
46492;DHT22;32206;51.446;6.792;2023-06-26T14:59:24;25.00;99.90
46492;DHT22;32206;51.446;6.792;2023-06-26T15:01:49;25.00;99.90
46492;DHT22;32206;51.446;6.792;2023-06-26T15:04:15;25.00;99.90
46492;DHT22;32206;51.446;6.792;2023-06-26T15:06:40;24.90;1.00
46492;DHT22;32206;51.446;6.792;2023-06-26T15:09:06;25.00;1.00
46492;DHT22;32206;51.446;6.792;2023-06-26T15:11:32;25.00;1.00
46492;DHT22;32206;51.446;6.792;2023-06-26T15:17:20;25.00;1.00
46492;DHT22;32206;51.446;6.792;2023-06-26T15:19:45;24.80;1.00
46492;DHT22;32206;51.446;6.792;2023-06-26T15:22:33;24.80;1.00
46492;DHT22;32206;51.446;6.792;2023-06-26T15:28:21;24.80;1.00
46492;DHT22;32206;51.446;6.792;2023-06-26T15:30:47;24.90;1.00
46492;DHT22;32206;51.446;6.792;2023-06-26T15:33:12;24.80;1.00
46492;DHT22;32206;51.446;6.792;2023-06-26T15:35:38;24.80;1.00
46492;DHT22;32206;51.446;6.792;2023-06-26T15:38:04;24.80;1.00
46492;DHT22;32206;51.446;6.792;2023-06-26T15:40:30;24.90;1.00
46492;DHT22;32206;51.446;6.792;2023-06-26T15:42:56;24.70;1.00
46492;DHT22;32206;51.446;6.792;2023-06-26T15:45:22;24.70;1.00
46492;DHT22;32206;51.446;6.792;2023-06-26T15:47:49;24.50;1.00
46492;DHT22;32206;51.446;6.792;2023-06-26T15:50:16;24.50;1.00
46492;DHT22;32206;51.446;6.792;2023-06-26T15:52:42;24.40;1.00
46492;DHT22;32206;51.446;6.792;2023-06-26T15:55:08;24.30;1.00
46492;DHT22;32206;51.446;6.792;2023-06-26T15:57:35;24.30;1.00
46492;DHT22;32206;51.446;6.792;2023-06-26T16:00:02;24.20;1.00
46492;DHT22;32206;51.446;6.792;2023-06-26T16:02:29;24.10;1.00
46492;DHT22;32206;51.446;6.792;2023-06-26T16:04:55;24.10;1.00
46492;DHT22;32206;51.446;6.792;2023-06-26T16:07:21;24.20;1.00
46492;DHT22;32206;51.446;6.792;2023-06-26T16:09:47;24.20;1.00
46492;DHT22;32206;51.446;6.792;2023-06-26T16:12:13;24.20;1.00
46492;DHT22;32206;51.446;6.792;2023-06-26T16:18:02;24.10;1.00
46492;DHT22;32206;51.446;6.792;2023-06-26T16:20:27;23.90;1.00
46492;DHT22;32206;51.446;6.792;2023-06-26T16:22:55;24.00;1.00
46492;DHT22;32206;51.446;6.792;2023-06-26T16:25:20;23.90;1.00
46492;DHT22;32206;51.446;6.792;2023-06-26T16:27:46;23.90;1.00
46492;DHT22;32206;51.446;6.792;2023-06-26T16:30:12;23.90;1.00
46492;DHT22;32206;51.446;6.792;2023-06-26T16:32:38;23.90;1.00
46492;DHT22;32206;51.446;6.792;2023-06-26T16:35:04;23.90;1.00
46492;DHT22;32206;51.446;6.792;2023-06-26T16:44:11;23.80;1.00
46492;DHT22;32206;51.446;6.792;2023-06-26T16:46:36;23.70;1.00
46492;DHT22;32206;51.446;6.792;2023-06-26T16:49:02;23.70;1.00
46492;DHT22;32206;51.446;6.792;2023-06-26T16:51:29;23.70;1.00
46492;DHT22;32206;51.446;6.792;2023-06-26T16:53:55;23.60;1.00
46492;DHT22;32206;51.446;6.792;2023-06-26T16:56:20;23.50;1.00
46492;DHT22;32206;51.446;6.792;2023-06-26T16:58:46;23.40;1.00
46492;DHT22;32206;51.446;6.792;2023-06-26T17:01:12;23.30;1.00
46492;DHT22;32206;51.446;6.792;2023-06-26T17:03:37;23.30;1.00
46492;DHT22;32206;51.446;6.792;2023-06-26T17:06:03;23.30;1.00
46492;DHT22;32206;51.446;6.792;2023-06-26T17:08:33;23.20;1.00
46492;DHT22;32206;51.446;6.792;2023-06-26T17:10:58;23.20;1.00
46492;DHT22;32206;51.446;6.792;2023-06-26T17:13:24;23.20;1.00
46492;DHT22;32206;51.446;6.792;2023-06-26T17:15:49;23.20;1.00
46492;DHT22;32206;51.446;6.792;2023-06-26T17:18:15;23.20;1.00
46492;DHT22;32206;51.446;6.792;2023-06-26T17:20:41;23.10;1.00
46492;DHT22;32206;51.446;6.792;2023-06-26T17:23:06;23.00;1.00
46492;DHT22;32206;51.446;6.792;2023-06-26T17:25:32;23.00;1.00
46492;DHT22;32206;51.446;6.792;2023-06-26T17:27:59;23.00;1.00
46492;DHT22;32206;51.446;6.792;2023-06-26T17:41:37;23.00;1.00
46492;DHT22;32206;51.446;6.792;2023-06-26T17:44:03;23.00;1.00